Time;durP1;ratioP1;P1;durP2;ratioP2;P2;SDS_P1;SDS_P2;PMS_P1;PMS_P2;Temp;Humidity;BMP_temperature;BMP_pressure;BME280_temperature;BME280_humidity;BME280_pressure;Samples;Min_cycle;Max_cycle;Signal;HPM_P1;HPM_P2
2023/10/25 00:00:19;;;;;;;;;;;;;;;15.51;100.00;100141.58;109757;1245;73451;-80
2023/10/25 00:03:10;;;;;;;;;;;;;;;15.49;100.00;100145.29;109800;1245;58178;-80
2023/10/25 00:05:39;;;;;;;;;;;;;;;15.46;100.00;100148.35;109808;1245;58375;-80
2023/10/25 00:08:08;;;;;;;;;;;;;;;15.46;100.00;100143.25;109864;1244;72187;-80
2023/10/25 00:10:36;;;;;;;;;;;;;;;15.45;100.00;100137.66;109811;1245;72003;-78
2023/10/25 00:13:05;;;;;;;;;;;;;;;15.43;100.00;100131.89;109864;1245;58975;-79
2023/10/25 00:15:33;;;;;;;;;;;;;;;15.40;100.00;100126.55;109791;1244;74145;-79
2023/10/25 00:18:02;;;;;;;;;;;;;;;15.41;100.00;100121.58;109819;1245;57872;-79
2023/10/25 00:20:31;;;;;;;;;;;;;;;15.40;100.00;100109.90;109846;1245;57737;-79
2023/10/25 00:22:59;;;;;;;;;;;;;;;15.32;100.00;100099.29;109864;1243;73324;-79
2023/10/25 00:25:28;;;;;;;;;;;;;;;15.30;100.00;100089.31;109842;1245;61939;-79
2023/10/25 00:27:56;;;;;;;;;;;;;;;15.29;100.00;100076.45;109800;1244;70236;-79
2023/10/25 00:30:25;;;;;;;;;;;;;;;15.26;100.00;100076.40;109753;1248;63039;-80
2023/10/25 00:32:53;;;;;;;;;;;;;;;15.23;100.00;100078.27;109781;1245;61905;-78
2023/10/25 00:35:22;;;;;;;;;;;;;;;15.22;100.00;100079.31;109803;1248;58246;-78
2023/10/25 00:37:51;;;;;;;;;;;;;;;15.20;100.00;100077.75;109872;1245;62918;-77
2023/10/25 00:40:19;;;;;;;;;;;;;;;15.18;100.00;100075.64;109831;1244;71979;-77
2023/10/25 00:42:48;;;;;;;;;;;;;;;15.18;100.00;100074.09;109607;1249;59502;-77
2023/10/25 00:45:17;;;;;;;;;;;;;;;15.17;100.00;100076.33;109805;1248;63129;-76
2023/10/25 00:47:45;;;;;;;;;;;;;;;15.18;100.00;100075.83;109803;1243;62620;-79
2023/10/25 00:50:17;;;;;;;;;;;;;;;15.19;100.00;100079.05;109726;1248;57732;-76
2023/10/25 00:52:45;;;;;;;;;;;;;;;15.19;100.00;100085.14;109834;1244;72467;-81
2023/10/25 00:55:14;;;;;;;;;;;;;;;15.21;100.00;100086.24;109641;1248;62027;-80
2023/10/25 00:57:43;;;;;;;;;;;;;;;15.22;100.00;100082.11;109628;1249;59029;-77
2023/10/25 01:00:12;;;;;;;;;;;;;;;15.24;100.00;100079.25;109710;1248;62262;-78
2023/10/25 01:02:41;;;;;;;;;;;;;;;15.26;100.00;100074.83;109707;1248;62194;-77
2023/10/25 01:05:10;;;;;;;;;;;;;;;15.27;100.00;100069.51;109618;1248;58296;-78
2023/10/25 01:07:39;;;;;;;;;;;;;;;15.28;100.00;100073.95;109623;1248;65077;-77
2023/10/25 01:10:08;;;;;;;;;;;;;;;15.24;100.00;100078.86;109770;1245;70822;-77
2023/10/25 01:12:37;;;;;;;;;;;;;;;15.28;100.00;100078.61;109634;1248;60305;-78
2023/10/25 01:15:06;;;;;;;;;;;;;;;15.33;100.00;100076.58;109772;1245;72977;-78
2023/10/25 01:17:34;;;;;;;;;;;;;;;15.35;100.00;100078.91;109740;1248;61162;-77
2023/10/25 01:20:05;;;;;;;;;;;;;;;15.37;100.00;100083.43;109669;1249;58201;-78
2023/10/25 01:22:33;;;;;;;;;;;;;;;15.40;100.00;100091.44;109724;1244;74307;-78
2023/10/25 01:25:02;;;;;;;;;;;;;;;15.38;100.00;100095.28;109649;1248;62531;-78
2023/10/25 01:27:30;;;;;;;;;;;;;;;15.41;100.00;100095.03;109725;1244;69553;-78
2023/10/25 01:29:59;;;;;;;;;;;;;;;15.44;100.00;100090.38;109714;1248;62902;-78
2023/10/25 01:32:28;;;;;;;;;;;;;;;15.46;100.00;100087.09;109745;1248;58236;-78
2023/10/25 01:34:56;;;;;;;;;;;;;;;15.49;100.00;100082.64;109620;1248;60153;-78
2023/10/25 01:37:25;;;;;;;;;;;;;;;15.49;100.00;100080.73;109641;1248;64145;-77
2023/10/25 01:39:53;;;;;;;;;;;;;;;15.48;100.00;100074.00;109730;1244;71991;-77
2023/10/25 01:42:22;;;;;;;;;;;;;;;15.46;100.00;100067.89;109533;1251;60166;-77
2023/10/25 01:44:50;;;;;;;;;;;;;;;15.42;100.00;100060.02;109751;1245;73527;-79
2023/10/25 01:47:19;;;;;;;;;;;;;;;15.43;100.00;100062.26;109737;1248;58204;-79
2023/10/25 01:49:48;;;;;;;;;;;;;;;15.33;100.00;100059.38;109421;1244;58258;-77
2023/10/25 01:52:16;;;;;;;;;;;;;;;15.36;100.00;100054.45;109381;1251;74151;-77
2023/10/25 01:54:46;;;;;;;;;;;;;;;15.40;100.00;100049.84;109541;1246;61442;-78
2023/10/25 01:57:15;;;;;;;;;;;;;;;15.39;100.00;100036.15;109746;1244;69645;-79
2023/10/25 01:59:44;;;;;;;;;;;;;;;15.39;100.00;100017.52;109595;1248;62655;-76
2023/10/25 02:02:13;;;;;;;;;;;;;;;15.41;100.00;100003.26;109518;1250;62156;-76
2023/10/25 02:04:42;;;;;;;;;;;;;;;15.41;100.00;100003.27;109494;1245;58113;-76
2023/10/25 02:07:11;;;;;;;;;;;;;;;15.47;100.00;100010.57;109612;1245;72530;-79
2023/10/25 02:09:39;;;;;;;;;;;;;;;15.45;100.00;100004.21;109720;1248;71189;-78
2023/10/25 02:12:08;;;;;;;;;;;;;;;15.36;100.00;99993.30;109619;1244;69869;-78
2023/10/25 02:14:37;;;;;;;;;;;;;;;15.38;100.00;99988.00;109659;1245;63112;-77
2023/10/25 02:17:06;;;;;;;;;;;;;;;15.36;100.00;99984.98;109539;1250;58157;-77
2023/10/25 02:19:35;;;;;;;;;;;;;;;15.33;100.00;99971.48;109751;1245;60766;-77
2023/10/25 02:22:03;;;;;;;;;;;;;;;15.26;100.00;99965.16;109747;1244;74149;-77
2023/10/25 02:24:32;;;;;;;;;;;;;;;15.21;100.00;99963.56;109640;1244;62136;-77
2023/10/25 02:27:00;;;;;;;;;;;;;;;15.15;100.00;99959.34;109672;1244;69473;-76
2023/10/25 02:29:31;;;;;;;;;;;;;;;15.15;100.00;99959.27;109600;1245;64391;-76
2023/10/25 02:31:59;;;;;;;;;;;;;;;15.19;100.00;99964.55;109600;1249;62889;-77
2023/10/25 02:34:28;;;;;;;;;;;;;;;15.17;100.00;99967.38;109657;1245;58402;-77
2023/10/25 02:36:57;;;;;;;;;;;;;;;15.09;100.00;99961.79;109643;1244;63560;-77
2023/10/25 02:39:25;;;;;;;;;;;;;;;15.10;100.00;99957.20;109654;1244;72233;-77
2023/10/25 02:41:54;;;;;;;;;;;;;;;15.05;100.00;99958.23;109797;1244;59627;-77
2023/10/25 02:44:22;;;;;;;;;;;;;;;15.00;100.00;99961.02;109761;1245;72775;-77
2023/10/25 02:46:51;;;;;;;;;;;;;;;15.03;100.00;99955.45;109807;1245;58216;-78
2023/10/25 02:49:19;;;;;;;;;;;;;;;15.05;100.00;99952.29;109775;1244;60586;-77
2023/10/25 02:51:48;;;;;;;;;;;;;;;15.00;100.00;99942.74;109767;1244;74840;-78
2023/10/25 02:54:17;;;;;;;;;;;;;;;14.98;100.00;99936.35;109813;1248;62611;-78
2023/10/25 02:56:46;;;;;;;;;;;;;;;14.93;100.00;99926.89;109750;1243;59817;-77
2023/10/25 02:59:14;;;;;;;;;;;;;;;14.92;100.00;99927.52;109759;1245;73053;-77
2023/10/25 03:01:43;;;;;;;;;;;;;;;14.92;100.00;99925.19;109772;1245;57861;-78
2023/10/25 03:04:11;;;;;;;;;;;;;;;14.95;100.00;99919.28;109492;1244;60103;-77
2023/10/25 03:06:40;;;;;;;;;;;;;;;14.94;100.00;99917.30;109578;1244;72827;-78
2023/10/25 03:09:09;;;;;;;;;;;;;;;14.96;100.00;99922.21;109554;1244;61143;-78
2023/10/25 03:11:38;;;;;;;;;;;;;;;14.94;100.00;99916.91;109583;1245;59802;-78
2023/10/25 03:14:07;;;;;;;;;;;;;;;14.96;100.00;99910.44;109643;1244;62249;-78
2023/10/25 03:16:35;;;;;;;;;;;;;;;14.96;100.00;99914.28;109679;1245;61904;-78
2023/10/25 03:19:04;;;;;;;;;;;;;;;14.95;100.00;99915.06;109728;1245;57767;-78
2023/10/25 03:21:33;;;;;;;;;;;;;;;14.99;100.00;99913.64;109628;1248;74313;-78
2023/10/25 03:24:02;;;;;;;;;;;;;;;14.99;100.00;99911.14;109711;1244;71103;-80
2023/10/25 03:26:30;;;;;;;;;;;;;;;15.04;100.00;99908.94;109677;1246;69474;-80
2023/10/25 03:28:59;;;;;;;;;;;;;;;15.02;100.00;99907.63;109688;1244;62966;-78
2023/10/25 03:31:28;;;;;;;;;;;;;;;15.06;100.00;99905.52;109692;1248;58203;-77
2023/10/25 03:33:57;;;;;;;;;;;;;;;15.00;100.00;99906.98;109801;1246;57713;-77
2023/10/25 03:36:25;;;;;;;;;;;;;;;14.90;100.00;99893.55;109727;1247;74314;-77
2023/10/25 03:38:54;;;;;;;;;;;;;;;14.94;100.00;99880.49;109732;1248;61402;-75
2023/10/25 03:41:22;;;;;;;;;;;;;;;14.92;100.00;99867.76;109715;1248;69523;-76
2023/10/25 03:43:51;;;;;;;;;;;;;;;14.95;100.00;99861.91;109756;1244;63734;-78
2023/10/25 03:46:19;;;;;;;;;;;;;;;15.00;100.00;99863.84;109789;1248;61856;-76
2023/10/25 03:48:48;;;;;;;;;;;;;;;15.01;100.00;99852.73;109638;1244;61372;-78
2023/10/25 03:51:17;;;;;;;;;;;;;;;15.01;100.00;99849.80;109796;1244;64323;-77
2023/10/25 03:53:46;;;;;;;;;;;;;;;15.00;100.00;99842.47;109788;1245;60688;-78
2023/10/25 03:56:14;;;;;;;;;;;;;;;14.98;100.00;99837.92;109676;1245;70264;-74
2023/10/25 03:58:43;;;;;;;;;;;;;;;14.91;100.00;99835.38;109731;1244;63532;-72
2023/10/25 04:01:13;;;;;;;;;;;;;;;14.91;100.00;99837.48;109768;1246;63305;-76
2023/10/25 04:03:42;;;;;;;;;;;;;;;14.92;100.00;99846.14;109803;1246;60559;-82
2023/10/25 04:06:11;;;;;;;;;;;;;;;14.96;100.00;99837.11;109796;1244;73041;-83
2023/10/25 04:08:39;;;;;;;;;;;;;;;14.99;100.00;99834.06;109708;1244;71942;-81
2023/10/25 04:11:08;;;;;;;;;;;;;;;14.99;100.00;99833.83;109813;1243;59640;-83
2023/10/25 04:13:39;;;;;;;;;;;;;;;14.97;100.00;99824.81;109782;1246;72568;-82
2023/10/25 04:16:09;;;;;;;;;;;;;;;15.01;100.00;99813.94;109772;1246;61482;-74
2023/10/25 04:18:38;;;;;;;;;;;;;;;15.03;100.00;99801.65;109742;1244;58279;-82
2023/10/25 04:21:11;;;;;;;;;;;;;;;15.06;100.00;99787.88;109797;1245;73434;-75
2023/10/25 04:23:40;;;;;;;;;;;;;;;15.02;100.00;99776.89;109811;1244;61835;-81
2023/10/25 04:26:10;;;;;;;;;;;;;;;14.96;100.00;99778.03;109647;1244;69438;-83
2023/10/25 04:28:41;;;;;;;;;;;;;;;14.96;100.00;99784.88;109518;1248;73807;-81
2023/10/25 04:31:11;;;;;;;;;;;;;;;14.98;100.00;99785.86;109497;1248;61726;-82
2023/10/25 04:33:39;;;;;;;;;;;;;;;15.02;100.00;99784.98;109389;1244;61485;-83
2023/10/25 04:36:08;;;;;;;;;;;;;;;15.04;100.00;99777.88;109621;1244;74001;-82
2023/10/25 04:38:37;;;;;;;;;;;;;;;15.00;100.00;99778.48;109668;1244;62280;-79
2023/10/25 04:41:06;;;;;;;;;;;;;;;14.99;100.00;99779.46;109539;1244;69217;-81
2023/10/25 04:43:34;;;;;;;;;;;;;;;15.08;100.00;99777.96;109601;1244;73105;-83
2023/10/25 04:46:03;;;;;;;;;;;;;;;15.10;100.00;99779.05;109680;1246;62215;-82
2023/10/25 04:48:32;;;;;;;;;;;;;;;15.07;100.00;99774.57;109567;1243;58140;-78
2023/10/25 04:51:02;;;;;;;;;;;;;;;15.11;100.00;99770.63;109695;1244;73333;-81
2023/10/25 04:53:31;;;;;;;;;;;;;;;15.14;100.00;99764.02;109707;1245;60813;-81
2023/10/25 04:56:01;;;;;;;;;;;;;;;15.14;100.00;99765.34;109622;1244;70353;-80
2023/10/25 04:58:29;;;;;;;;;;;;;;;15.17;100.00;99759.19;109703;1245;73942;-80
2023/10/25 05:00:58;;;;;;;;;;;;;;;15.22;100.00;99760.18;109595;1248;62348;-81
2023/10/25 05:03:27;;;;;;;;;;;;;;;15.18;100.00;99760.27;109514;1244;60714;-80
2023/10/25 05:05:56;;;;;;;;;;;;;;;15.21;100.00;99766.30;109620;1244;73893;-81
2023/10/25 05:08:25;;;;;;;;;;;;;;;15.26;100.00;99767.65;109674;1244;72010;-83
2023/10/25 05:10:54;;;;;;;;;;;;;;;15.30;100.00;99771.78;109681;1244;69939;-82
2023/10/25 05:13:23;;;;;;;;;;;;;;;15.28;100.00;99775.52;109558;1244;73762;-82
2023/10/25 05:15:51;;;;;;;;;;;;;;;15.27;100.00;99786.50;109568;1247;62175;-82
2023/10/25 05:18:20;;;;;;;;;;;;;;;15.27;100.00;99786.69;109712;1244;58269;-82
2023/10/25 05:20:56;;;;;;;;;;;;;;;15.25;100.00;99783.00;109685;1244;63618;-82
2023/10/25 05:23:32;;;;;;;;;;;;;;;15.22;100.00;99764.95;109577;1244;71986;-81
2023/10/25 05:26:04;;;;;;;;;;;;;;;15.21;100.00;99750.38;109237;1244;400711;-82
2023/10/25 05:28:33;;;;;;;;;;;;;;;15.14;100.00;99751.39;109611;1245;72325;-81
2023/10/25 05:31:03;;;;;;;;;;;;;;;15.17;100.00;99756.79;109627;1245;57871;-81
2023/10/25 05:33:32;;;;;;;;;;;;;;;15.12;100.00;99757.58;109549;1244;58387;-82
2023/10/25 05:36:01;;;;;;;;;;;;;;;15.09;100.00;99761.00;109553;1244;62898;-82
2023/10/25 05:38:30;;;;;;;;;;;;;;;15.09;100.00;99768.63;109613;1245;60677;-82
2023/10/25 05:40:59;;;;;;;;;;;;;;;15.01;100.00;99765.81;109648;1244;59559;-82
2023/10/25 05:43:29;;;;;;;;;;;;;;;14.97;100.00;99763.44;109491;1245;62472;-82
2023/10/25 05:45:57;;;;;;;;;;;;;;;14.98;100.00;99761.84;109356;1251;62736;-82
2023/10/25 05:48:27;;;;;;;;;;;;;;;14.99;100.00;99753.73;109616;1244;60135;-82
2023/10/25 05:50:59;;;;;;;;;;;;;;;14.99;100.00;99742.46;109629;1244;64630;-82
2023/10/25 05:53:28;;;;;;;;;;;;;;;15.09;100.00;99743.90;109698;1244;61501;-82
2023/10/25 05:55:57;;;;;;;;;;;;;;;15.18;100.00;99733.50;109664;1244;61315;-81
2023/10/25 05:58:25;;;;;;;;;;;;;;;15.27;100.00;99726.14;109654;1244;74152;-81
2023/10/25 06:00:55;;;;;;;;;;;;;;;15.33;100.00;99722.04;109616;1245;61764;-82
2023/10/25 06:03:25;;;;;;;;;;;;;;;15.40;100.00;99719.73;109664;1243;61222;-82
2023/10/25 06:06:05;;;;;;;;;;;;;;;15.52;100.00;99725.38;109747;1244;74024;-81
2023/10/25 06:08:34;;;;;;;;;;;;;;;15.61;100.00;99727.02;109755;1244;62336;-81
2023/10/25 06:11:03;;;;;;;;;;;;;;;15.72;100.00;99724.02;109855;1245;59719;-82
2023/10/25 06:13:32;;;;;;;;;;;;;;;15.76;100.00;99719.83;109849;1246;63178;-82
2023/10/25 06:16:01;;;;;;;;;;;;;;;15.80;100.00;99716.73;109867;1244;62055;-82
2023/10/25 06:18:29;;;;;;;;;;;;;;;15.86;100.00;99724.40;109925;1244;59960;-81
2023/10/25 06:20:58;;;;;;;;;;;;;;;15.88;100.00;99729.31;109933;1245;62852;-81
2023/10/25 06:23:26;;;;;;;;;;;;;;;15.89;100.00;99741.53;109874;1244;71947;-81
2023/10/25 06:25:55;;;;;;;;;;;;;;;15.88;100.00;99748.48;109741;1246;59558;-81
2023/10/25 06:28:23;;;;;;;;;;;;;;;15.82;100.00;99765.32;109833;1246;64825;-82
2023/10/25 06:30:52;;;;;;;;;;;;;;;15.86;100.00;99766.61;109702;1244;58294;-82
2023/10/25 06:33:20;;;;;;;;;;;;;;;15.86;100.00;99758.52;109807;1244;60967;-83
2023/10/25 06:35:49;;;;;;;;;;;;;;;15.83;100.00;99746.48;109793;1245;63241;-81
2023/10/25 06:38:18;;;;;;;;;;;;;;;15.76;100.00;99749.98;109808;1246;61397;-81
2023/10/25 06:40:47;;;;;;;;;;;;;;;15.83;100.00;99775.20;109750;1244;70327;-81
2023/10/25 06:43:15;;;;;;;;;;;;;;;15.88;100.00;99758.67;109760;1244;74132;-81
2023/10/25 06:45:48;;;;;;;;;;;;;;;15.85;100.00;99755.66;109888;1244;58298;-80
2023/10/25 06:48:16;;;;;;;;;;;;;;;15.93;100.00;99741.16;109786;1244;60137;-82
2023/10/25 06:50:46;;;;;;;;;;;;;;;16.04;100.00;99743.83;109828;1245;64010;-81
2023/10/25 06:53:15;;;;;;;;;;;;;;;16.07;100.00;99746.05;109726;1245;61461;-81
2023/10/25 06:55:46;;;;;;;;;;;;;;;16.10;100.00;99747.79;109728;1244;69978;-81
2023/10/25 06:58:15;;;;;;;;;;;;;;;16.14;100.00;99738.91;109844;1244;63437;-82
2023/10/25 07:00:44;;;;;;;;;;;;;;;16.17;100.00;99728.83;109846;1245;58398;-82
2023/10/25 07:03:13;;;;;;;;;;;;;;;16.26;100.00;99726.00;109806;1244;57721;-81
2023/10/25 07:05:44;;;;;;;;;;;;;;;16.37;100.00;99724.46;109709;1244;72872;-80
2023/10/25 07:08:13;;;;;;;;;;;;;;;16.40;100.00;99725.67;109575;1247;61099;-82
2023/10/25 07:10:42;;;;;;;;;;;;;;;16.45;100.00;99723.56;109672;1244;60550;-80
2023/10/25 07:13:11;;;;;;;;;;;;;;;16.55;100.00;99719.14;109687;1245;73615;-83
2023/10/25 07:15:39;;;;;;;;;;;;;;;16.64;100.00;99714.02;109680;1246;63996;-81
2023/10/25 07:18:08;;;;;;;;;;;;;;;16.69;100.00;99706.56;109725;1246;57808;-81
2023/10/25 07:20:36;;;;;;;;;;;;;;;16.81;100.00;99703.11;109677;1244;73560;-82
2023/10/25 07:23:05;;;;;;;;;;;;;;;16.88;100.00;99703.37;109639;1245;61883;-82
2023/10/25 07:25:33;;;;;;;;;;;;;;;16.77;100.00;99700.98;109696;1244;69234;-82
2023/10/25 07:28:02;;;;;;;;;;;;;;;16.58;100.00;99684.13;109646;1245;62811;-82
2023/10/25 07:30:31;;;;;;;;;;;;;;;16.54;100.00;99669.88;109766;1245;61894;-81
2023/10/25 07:33:00;;;;;;;;;;;;;;;16.60;100.00;99665.48;109825;1245;58138;-83
2023/10/25 07:35:28;;;;;;;;;;;;;;;16.72;100.00;99667.83;109784;1243;73416;-83
2023/10/25 07:37:57;;;;;;;;;;;;;;;16.81;100.00;99672.59;109659;1248;61848;-82
2023/10/25 07:40:25;;;;;;;;;;;;;;;17.00;100.00;99670.04;109702;1244;70531;-82
2023/10/25 07:42:54;;;;;;;;;;;;;;;17.05;100.00;99667.64;109586;1248;63014;-82
2023/10/25 07:45:22;;;;;;;;;;;;;;;17.13;100.00;99670.55;109663;1244;61967;-82
2023/10/25 07:47:51;;;;;;;;;;;;;;;17.34;100.00;99667.42;109561;1248;61365;-82
2023/10/25 07:50:20;;;;;;;;;;;;;;;17.33;100.00;99665.45;109706;1244;72922;-82
2023/10/25 07:52:49;;;;;;;;;;;;;;;17.37;100.00;99662.48;109669;1245;63697;-83
2023/10/25 07:55:18;;;;;;;;;;;;;;;17.54;100.00;99659.06;109698;1245;60286;-82
2023/10/25 07:58:07;;;;;;;;;;;;;;;17.67;100.00;99650.97;109651;1244;73775;-83
2023/10/25 08:00:39;;;;;;;;;;;;;;;17.67;100.00;99640.12;109707;1244;58182;-82
2023/10/25 08:03:07;;;;;;;;;;;;;;;17.76;100.00;99640.87;109782;1246;60839;-83
2023/10/25 08:05:36;;;;;;;;;;;;;;;17.81;100.00;99635.20;109761;1248;63552;-81
2023/10/25 08:08:05;;;;;;;;;;;;;;;17.78;100.00;99632.20;109794;1244;61650;-82
2023/10/25 08:10:33;;;;;;;;;;;;;;;17.75;100.00;99635.89;109808;1244;69527;-82
2023/10/25 08:13:05;;;;;;;;;;;;;;;17.83;100.00;99639.01;109590;1251;71519;-82
2023/10/25 08:15:36;;;;;;;;;;;;;;;17.88;100.00;99637.49;109775;1244;62436;-82
2023/10/25 08:18:05;;;;;;;;;;;;;;;17.89;100.00;99641.04;109703;1247;61322;-83
2023/10/25 08:20:37;;;;;;;;;;;;;;;17.80;100.00;99651.49;109755;1246;63746;-82
2023/10/25 08:23:05;;;;;;;;;;;;;;;17.88;100.00;99658.81;109606;1244;72081;-83
2023/10/25 08:25:35;;;;;;;;;;;;;;;17.98;100.00;99666.96;109568;1244;59110;-82
2023/10/25 08:28:03;;;;;;;;;;;;;;;18.08;100.00;99672.79;109605;1244;64026;-81
2023/10/25 08:30:32;;;;;;;;;;;;;;;18.20;100.00;99677.11;109639;1246;57869;-82
2023/10/25 08:33:00;;;;;;;;;;;;;;;18.35;100.00;99677.63;109611;1244;60848;-83
2023/10/25 08:35:29;;;;;;;;;;;;;;;18.43;100.00;99672.91;109645;1246;65594;-83
2023/10/25 08:37:58;;;;;;;;;;;;;;;18.47;100.00;99665.75;109644;1245;61440;-84
2023/10/25 08:40:26;;;;;;;;;;;;;;;18.55;100.00;99664.17;109558;1248;69418;-83
2023/10/25 08:42:59;;;;;;;;;;;;;;;18.61;100.00;99660.09;109464;1249;63016;-82
2023/10/25 08:45:28;;;;;;;;;;;;;;;18.59;100.00;99658.40;109456;1249;58237;-83
2023/10/25 08:47:57;;;;;;;;;;;;;;;18.69;100.00;99653.88;109642;1245;58289;-83
2023/10/25 08:50:26;;;;;;;;;;;;;;;18.71;100.00;99650.08;109680;1245;74011;-83
2023/10/25 08:52:56;;;;;;;;;;;;;;;18.93;100.00;99654.64;109532;1244;61635;-83
2023/10/25 08:55:25;;;;;;;;;;;;;;;19.01;100.00;99659.42;109541;1244;70255;-83
2023/10/25 08:57:56;;;;;;;;;;;;;;;19.06;100.00;99656.05;109649;1250;73278;-82
2023/10/25 09:00:28;;;;;;;;;;;;;;;19.12;100.00;99654.92;109640;1245;61182;-83
2023/10/25 09:03:31;;;;;;;;;;;;;;;18.90;100.00;99646.31;109718;1244;60518;-83
2023/10/25 09:06:03;;;;;;;;;;;;;;;18.86;100.00;99632.72;109782;1244;64403;-82
2023/10/25 09:08:33;;;;;;;;;;;;;;;19.02;100.00;99628.58;109638;1244;61049;-83
2023/10/25 09:11:03;;;;;;;;;;;;;;;19.18;100.00;99626.63;109780;1244;70418;-82
2023/10/25 09:13:34;;;;;;;;;;;;;;;19.13;100.00;99625.88;109612;1244;73444;-82
2023/10/25 09:16:13;;;;;;;;;;;;;;;19.16;100.00;99624.97;109765;1245;58220;-83
2023/10/25 09:18:41;;;;;;;;;;;;;;;19.20;100.00;99622.15;109655;1248;60300;-83
2023/10/25 09:21:11;;;;;;;;;;;;;;;19.30;100.00;99611.87;109752;1245;74190;-84
2023/10/25 09:23:41;;;;;;;;;;;;;;;19.45;100.00;99612.08;109821;1246;71768;-83
2023/10/25 09:26:15;;;;;;;;;;;;;;;19.54;100.00;99608.14;109800;1244;60739;-81
2023/10/25 09:28:47;;;;;;;;;;;;;;;19.52;100.00;99613.80;109676;1244;71600;-84
2023/10/25 09:31:25;;;;;;;;;;;;;;;19.54;100.00;99618.67;109777;1244;61008;-84
2023/10/25 09:33:59;;;;;;;;;;;;;;;19.55;100.00;99608.86;109780;1244;61596;-83
2023/10/25 09:36:28;;;;;;;;;;;;;;;19.44;100.00;99606.58;109805;1244;74670;-82
2023/10/25 09:38:56;;;;;;;;;;;;;;;19.36;100.00;99614.44;109641;1244;72011;-83
2023/10/25 09:41:28;;;;;;;;;;;;;;;19.28;100.00;99616.55;109686;1244;60195;-82
2023/10/25 09:43:59;;;;;;;;;;;;;;;19.32;100.00;99619.18;109821;1244;62521;-82
2023/10/25 09:46:31;;;;;;;;;;;;;;;19.34;100.00;99612.75;109777;1244;57764;-81
2023/10/25 09:49:04;;;;;;;;;;;;;;;19.26;100.00;99603.34;109801;1244;58264;-81
2023/10/25 09:51:43;;;;;;;;;;;;;;;19.22;100.00;99599.61;109980;1244;62728;-81
2023/10/25 09:54:13;;;;;;;;;;;;;;;19.21;100.00;99592.19;109884;1244;60800;-81
2023/10/25 09:56:42;;;;;;;;;;;;;;;19.11;100.00;99585.80;109773;1244;69847;-81
2023/10/25 09:59:11;;;;;;;;;;;;;;;19.07;100.00;99581.54;109981;1244;63582;-82
2023/10/25 10:01:41;;;;;;;;;;;;;;;19.17;100.00;99570.08;110002;1244;58389;-82
2023/10/25 10:04:35;;;;;;;;;;;;;;;19.29;100.00;99565.52;109783;1244;60074;-82
2023/10/25 10:07:20;;;;;;;;;;;;;;;19.43;100.00;99554.92;109824;1244;73602;-83
2023/10/25 10:10:05;;;;;;;;;;;;;;;19.47;100.00;99555.15;109883;1244;71242;-83
2023/10/25 10:12:35;;;;;;;;;;;;;;;19.50;100.00;99557.92;109728;1244;59838;-83
2023/10/25 10:15:04;;;;;;;;;;;;;;;19.46;100.00;99555.05;109821;1244;63281;-84
2023/10/25 10:17:36;;;;;;;;;;;;;;;19.52;100.00;99549.09;109679;1247;57806;-80
2023/10/25 10:20:05;;;;;;;;;;;;;;;19.53;100.00;99541.23;109819;1244;58141;-80
2023/10/25 10:22:34;;;;;;;;;;;;;;;19.58;100.00;99540.67;109809;1244;62937;-80
2023/10/25 10:25:04;;;;;;;;;;;;;;;19.58;100.00;99538.17;109803;1244;61584;-81
2023/10/25 10:27:42;;;;;;;;;;;;;;;19.64;100.00;99533.73;109842;1244;60025;-80
2023/10/25 10:30:29;;;;;;;;;;;;;;;19.61;100.00;99523.89;109787;1244;64858;-79
2023/10/25 10:32:58;;;;;;;;;;;;;;;19.65;100.00;99513.80;109785;1245;60257;-79
2023/10/25 10:35:28;;;;;;;;;;;;;;;19.80;100.00;99511.53;109680;1244;60193;-79
2023/10/25 10:37:57;;;;;;;;;;;;;;;19.89;100.00;99505.40;109713;1244;63403;-79
2023/10/25 10:40:26;;;;;;;;;;;;;;;19.95;100.00;99495.21;109660;1244;61705;-79
2023/10/25 10:42:55;;;;;;;;;;;;;;;19.72;100.00;99493.56;109839;1244;59033;-80
2023/10/25 10:45:29;;;;;;;;;;;;;;;19.62;100.00;99496.95;109741;1245;73084;-78
2023/10/25 10:48:11;;;;;;;;;;;;;;;19.46;100.00;99497.05;109729;1244;60253;-79
2023/10/25 10:50:40;;;;;;;;;;;;;;;19.46;100.00;99502.63;109832;1244;60752;-79
2023/10/25 10:53:09;;;;;;;;;;;;;;;19.35;100.00;99507.27;109675;1244;63590;-79
2023/10/25 10:55:40;;;;;;;;;;;;;;;19.41;100.00;99507.45;109875;1245;61599;-80
2023/10/25 10:58:09;;;;;;;;;;;;;;;19.32;100.00;99519.86;109772;1244;70480;-79
2023/10/25 11:00:44;;;;;;;;;;;;;;;19.33;100.00;99525.30;109734;1245;72836;-80
2023/10/25 11:03:14;;;;;;;;;;;;;;;19.30;100.00;99522.26;109856;1245;61845;-80
2023/10/25 11:05:43;;;;;;;;;;;;;;;19.33;100.00;99525.08;109792;1244;60658;-82
2023/10/25 11:08:13;;;;;;;;;;;;;;;19.28;100.00;99519.20;109865;1243;73920;-80
2023/10/25 11:10:43;;;;;;;;;;;;;;;19.16;100.00;99516.08;109760;1246;61056;-80
2023/10/25 11:13:13;;;;;;;;;;;;;;;19.13;100.00;99523.43;109758;1244;70314;-80
2023/10/25 11:15:41;;;;;;;;;;;;;;;19.21;100.00;99527.39;109735;1244;74324;-79
2023/10/25 11:18:10;;;;;;;;;;;;;;;19.20;100.00;99524.65;109795;1244;62485;-79
2023/10/25 11:20:41;;;;;;;;;;;;;;;19.34;100.00;99523.10;109769;1244;60147;-78
2023/10/25 11:23:10;;;;;;;;;;;;;;;19.62;100.00;99523.28;109666;1244;63761;-78
2023/10/25 11:25:39;;;;;;;;;;;;;;;19.57;100.00;99519.42;109761;1245;61618;-80
2023/10/25 11:28:10;;;;;;;;;;;;;;;19.61;100.00;99520.64;109728;1246;60009;-78
2023/10/25 11:30:40;;;;;;;;;;;;;;;19.84;100.00;99511.02;109663;1244;74375;-80
2023/10/25 11:33:09;;;;;;;;;;;;;;;19.91;100.00;99507.04;109756;1244;58120;-80
2023/10/25 11:35:42;;;;;;;;;;;;;;;20.09;100.00;99500.71;109790;1244;57887;-80
2023/10/25 11:38:12;;;;;;;;;;;;;;;20.24;100.00;99491.63;109604;1244;74342;-81
2023/10/25 11:40:48;;;;;;;;;;;;;;;20.65;100.00;99482.22;109650;1244;72623;-81
2023/10/25 11:56:06;;;;;;;;;;;;;;;23.04;100.00;99466.30;104336;1274;614038;-69
2023/10/25 11:58:35;;;;;;;;;;;;;;;23.39;100.00;99456.71;106508;1254;306735;-69
2023/10/25 12:01:04;;;;;;;;;;;;;;;23.58;100.00;99451.63;106766;1248;59473;-68
2023/10/25 12:03:38;;;;;;;;;;;;;;;23.68;100.00;99449.13;106913;1244;61844;-70
2023/10/25 12:06:07;;;;;;;;;;;;;;;24.00;100.00;99454.92;106950;1247;60925;-69
2023/10/25 12:08:36;;;;;;;;;;;;;;;23.93;100.00;99458.27;106851;1245;70383;-69
2023/10/25 12:11:09;;;;;;;;;;;;;;;23.71;100.00;99461.86;106993;1247;74378;-70
2023/10/25 12:13:39;;;;;;;;;;;;;;;23.32;100.00;99458.26;106936;1245;61779;-68
2023/10/25 12:16:08;;;;;;;;;;;;;;;23.12;100.00;99447.36;106995;1244;60841;-69
2023/10/25 12:18:37;;;;;;;;;;;;;;;22.91;100.00;99442.73;107128;1248;71446;-72
2023/10/25 12:21:08;;;;;;;;;;;;;;;22.84;100.00;99444.31;107079;1254;72385;-71
2023/10/25 12:23:37;;;;;;;;;;;;;;;22.65;100.00;99442.77;106882;1252;61520;-69
2023/10/25 12:26:08;;;;;;;;;;;;;;;22.28;100.00;99442.91;107249;1250;63311;-68
2023/10/25 12:28:37;;;;;;;;;;;;;;;22.06;100.00;99437.22;106985;1251;59040;-68
2023/10/25 12:31:07;;;;;;;;;;;;;;;21.72;100.00;99429.70;106812;1255;57602;-70
2023/10/25 12:33:35;;;;;;;;;;;;;;;21.51;100.00;99430.36;106827;1256;73261;-70
2023/10/25 12:36:05;;;;;;;;;;;;;;;21.55;100.00;99431.56;106835;1261;61490;-69
2023/10/25 12:38:34;;;;;;;;;;;;;;;21.37;100.00;99433.73;106778;1251;59217;-69
2023/10/25 12:41:03;;;;;;;;;;;;;;;21.29;100.00;99427.75;106660;1251;73982;-68
2023/10/25 12:43:32;;;;;;;;;;;;;;;21.41;100.00;99427.88;107563;1258;60479;-69
2023/10/25 12:46:00;;;;;;;;;;;;;;;21.38;100.00;99421.52;106783;1250;61483;-68
2023/10/25 12:48:29;;;;;;;;;;;;;;;21.34;100.00;99424.27;106925;1248;72345;-71
2023/10/25 12:50:59;;;;;;;;;;;;;;;21.31;100.00;99430.04;106856;1248;71252;-68